Time;durP1;ratioP1;P1;durP2;ratioP2;P2;SDS_P1;SDS_P2;PMS_P1;PMS_P2;Temp;Humidity;BMP_temperature;BMP_pressure;BME280_temperature;BME280_humidity;BME280_pressure;Samples;Min_cycle;Max_cycle;Signal;HPM_P1;HPM_P2
2022/05/10 00:02:02;;;;;;;;;;;18.90;95.20;;;;;;4358386;33;44812;-77
2022/05/10 00:04:29;;;;;;;;;;;18.90;95.30;;;;;;4359460;33;45938;-77
2022/05/10 00:06:56;;;;;;;;;;;18.90;95.20;;;;;;4358519;33;43713;-77
2022/05/10 00:09:27;;;;;;;;;;;18.90;95.30;;;;;;4359600;33;42443;-77
2022/05/10 00:11:55;;;;;;;;;;;18.90;95.30;;;;;;4359792;33;43165;-77
2022/05/10 00:14:22;;;;;;;;;;;18.80;95.20;;;;;;4360207;33;20016;-77
2022/05/10 00:16:52;;;;;;;;;;;18.80;95.40;;;;;;4359725;33;42477;-77
2022/05/10 00:19:20;;;;;;;;;;;18.80;95.40;;;;;;4359405;33;42479;-78
2022/05/10 00:21:47;;;;;;;;;;;18.80;95.50;;;;;;4346114;33;42587;-78
2022/05/10 00:24:15;;;;;;;;;;;18.80;95.30;;;;;;4346036;33;44121;-77
2022/05/10 00:26:42;;;;;;;;;;;18.70;95.30;;;;;;4359332;33;43751;-77
2022/05/10 00:29:09;;;;;;;;;;;18.80;95.30;;;;;;4346315;33;42841;-77
2022/05/10 00:31:36;;;;;;;;;;;18.70;95.40;;;;;;4359909;33;43861;-78
2022/05/10 00:34:03;;;;;;;;;;;18.70;95.60;;;;;;4358212;33;43459;-78
2022/05/10 00:36:31;;;;;;;;;;;18.70;95.50;;;;;;4359223;33;46204;-78
2022/05/10 00:38:58;;;;;;;;;;;18.70;95.50;;;;;;4359346;33;42676;-77
2022/05/10 00:41:48;;;;;;;;;;;18.60;95.50;;;;;;4359334;33;42654;-77
2022/05/10 00:44:20;;;;;;;;;;;18.60;95.90;;;;;;4331493;33;44195;-77
2022/05/10 00:46:58;;;;;;;;;;;18.70;95.80;;;;;;4359246;33;44215;-77
2022/05/10 00:49:28;;;;;;;;;;;18.70;96.00;;;;;;4359608;33;44039;-78
2022/05/10 00:52:02;;;;;;;;;;;18.60;95.90;;;;;;4360256;32;43004;-77
2022/05/10 00:54:31;;;;;;;;;;;18.70;95.90;;;;;;4362373;32;43581;-77
2022/05/10 00:57:01;;;;;;;;;;;18.70;96.00;;;;;;4362339;32;43099;-78
2022/05/10 00:59:34;;;;;;;;;;;18.60;96.10;;;;;;4348659;32;42415;-78
2022/05/10 01:02:07;;;;;;;;;;;18.60;96.10;;;;;;4348830;32;43213;-77
2022/05/10 01:04:47;;;;;;;;;;;18.60;96.10;;;;;;4362148;32;43476;-77
2022/05/10 01:07:18;;;;;;;;;;;18.60;96.00;;;;;;4349239;32;43367;-77
2022/05/10 01:09:49;;;;;;;;;;;18.50;96.00;;;;;;4348566;32;43308;-78
2022/05/10 01:12:22;;;;;;;;;;;18.50;96.00;;;;;;4348925;32;43698;-77
2022/05/10 01:15:22;;;;;;;;;;;18.50;96.00;;;;;;4348730;32;43280;-77
2022/05/10 01:17:51;;;;;;;;;;;18.50;96.10;;;;;;4328653;32;43792;-77
2022/05/10 01:20:20;;;;;;;;;;;18.40;96.20;;;;;;4361592;32;42576;-77
2022/05/10 01:22:56;;;;;;;;;;;18.40;96.20;;;;;;4348295;32;45831;-77
2022/05/10 01:25:32;;;;;;;;;;;18.50;96.30;;;;;;4348800;32;43895;-77
2022/05/10 01:28:11;;;;;;;;;;;18.50;96.30;;;;;;4348719;32;43073;-78
2022/05/10 01:30:38;;;;;;;;;;;18.40;96.30;;;;;;4348741;32;43223;-77
2022/05/10 01:33:31;;;;;;;;;;;18.50;96.40;;;;;;4361434;32;43606;-77
2022/05/10 01:36:09;;;;;;;;;;;18.50;96.20;;;;;;4361870;32;43864;-77
2022/05/10 01:38:43;;;;;;;;;;;18.50;96.20;;;;;;4361360;32;42490;-76
2022/05/10 01:41:16;;;;;;;;;;;18.40;96.20;;;;;;4361753;32;43147;-77
2022/05/10 01:43:47;;;;;;;;;;;18.40;96.20;;;;;;4361849;32;44961;-77
2022/05/10 01:46:23;;;;;;;;;;;18.40;96.20;;;;;;4349301;32;20414;-76
2022/05/10 01:48:52;;;;;;;;;;;18.40;96.30;;;;;;4348394;32;44208;-77
2022/05/10 01:51:22;;;;;;;;;;;18.40;96.40;;;;;;4361129;32;43185;-77
2022/05/10 01:53:49;;;;;;;;;;;18.40;96.20;;;;;;4361072;32;43600;-78
2022/05/10 01:56:21;;;;;;;;;;;18.40;96.30;;;;;;4360077;32;43542;-76
2022/05/10 01:58:48;;;;;;;;;;;18.40;96.30;;;;;;4361345;32;43555;-76
2022/05/10 02:01:21;;;;;;;;;;;18.40;96.20;;;;;;4360955;32;43668;-76
2022/05/10 02:03:52;;;;;;;;;;;18.40;96.20;;;;;;4360398;32;44856;-76
2022/05/10 02:06:22;;;;;;;;;;;18.30;96.20;;;;;;4361009;32;42634;-76
2022/05/10 02:08:57;;;;;;;;;;;18.30;96.10;;;;;;4347588;32;42827;-76
2022/05/10 02:11:31;;;;;;;;;;;18.30;96.20;;;;;;4348900;32;43977;-76
2022/05/10 02:14:17;;;;;;;;;;;18.30;96.00;;;;;;4360822;32;42672;-76
2022/05/10 02:16:49;;;;;;;;;;;18.30;96.00;;;;;;4348817;32;20090;-78
2022/05/10 02:19:19;;;;;;;;;;;18.30;96.20;;;;;;4361559;32;43447;-78
2022/05/10 02:21:51;;;;;;;;;;;18.30;96.20;;;;;;4359756;32;43752;-77
2022/05/10 02:24:25;;;;;;;;;;;18.30;96.20;;;;;;4347433;32;43624;-77
2022/05/10 02:26:58;;;;;;;;;;;18.30;96.20;;;;;;4361312;32;43548;-77
2022/05/10 02:29:28;;;;;;;;;;;18.20;96.30;;;;;;4360614;32;45714;-77
2022/05/10 02:34:43;;;;;;;;;;;18.20;96.30;;;;;;4360516;32;42695;-77
2022/05/10 02:37:12;;;;;;;;;;;18.20;96.30;;;;;;4360414;32;43258;-77
2022/05/10 02:39:39;;;;;;;;;;;18.20;96.20;;;;;;4360869;32;42774;-77
2022/05/10 02:42:09;;;;;;;;;;;18.20;96.20;;;;;;4360445;32;42920;-77
2022/05/10 02:44:37;;;;;;;;;;;18.20;96.20;;;;;;4347087;32;44442;-77
2022/05/10 02:47:07;;;;;;;;;;;18.20;96.10;;;;;;4360373;32;43655;-77
2022/05/10 02:49:36;;;;;;;;;;;18.20;96.00;;;;;;4360820;32;43168;-77
2022/05/10 02:52:04;;;;;;;;;;;18.20;96.10;;;;;;4360739;32;43490;-77
2022/05/10 02:54:31;;;;;;;;;;;18.10;96.00;;;;;;4346952;32;43028;-76
2022/05/10 02:57:00;;;;;;;;;;;18.10;96.00;;;;;;4360419;32;42484;-76
2022/05/10 02:59:29;;;;;;;;;;;18.10;96.10;;;;;;4359672;32;44307;-77
2022/05/10 03:02:02;;;;;;;;;;;18.10;96.30;;;;;;4346660;32;42753;-77
2022/05/10 03:04:37;;;;;;;;;;;18.10;96.30;;;;;;4360715;32;43120;-78
2022/05/10 03:07:05;;;;;;;;;;;18.10;96.30;;;;;;4360277;32;44500;-77
2022/05/10 03:09:32;;;;;;;;;;;18.10;96.30;;;;;;4360298;32;42907;-77
2022/05/10 03:12:02;;;;;;;;;;;18.10;96.40;;;;;;4346916;32;43731;-77
2022/05/10 03:14:29;;;;;;;;;;;18.10;96.30;;;;;;4358437;32;42835;-76
2022/05/10 03:16:56;;;;;;;;;;;18.10;96.30;;;;;;4361239;32;20397;-77
2022/05/10 03:19:23;;;;;;;;;;;18.00;96.20;;;;;;4346917;32;45673;-77
2022/05/10 03:21:50;;;;;;;;;;;18.10;96.30;;;;;;4360411;32;44355;-76
2022/05/10 03:24:17;;;;;;;;;;;18.10;96.30;;;;;;4360059;32;43818;-76
2022/05/10 03:26:49;;;;;;;;;;;18.00;96.50;;;;;;4360112;32;43683;-76
2022/05/10 03:29:16;;;;;;;;;;;18.00;96.50;;;;;;4359904;32;42155;-76
2022/05/10 03:31:44;;;;;;;;;;;18.00;96.60;;;;;;4358828;32;43004;-76
2022/05/10 03:36:59;;;;;;;;;;;18.00;96.60;;;;;;4359755;32;42918;-76
2022/05/10 03:39:26;;;;;;;;;;;17.90;96.50;;;;;;4346529;32;46167;-76
2022/05/10 03:41:53;;;;;;;;;;;17.90;96.50;;;;;;4359031;32;43982;-76
2022/05/10 03:44:21;;;;;;;;;;;17.90;96.60;;;;;;4359105;32;43907;-76
2022/05/10 03:46:48;;;;;;;;;;;17.90;96.60;;;;;;4346840;32;43150;-76
2022/05/10 03:49:15;;;;;;;;;;;17.90;96.70;;;;;;4359702;32;44790;-76
2022/05/10 03:51:46;;;;;;;;;;;17.90;96.60;;;;;;4360288;32;43670;-76
2022/05/10 03:54:13;;;;;;;;;;;17.80;96.60;;;;;;4359989;33;43032;-76
2022/05/10 03:56:40;;;;;;;;;;;17.80;96.60;;;;;;4346295;33;43872;-76
2022/05/10 03:59:07;;;;;;;;;;;17.80;96.60;;;;;;4346207;33;42961;-76
2022/05/10 04:01:34;;;;;;;;;;;17.80;96.70;;;;;;4358400;33;43217;-76
2022/05/10 04:04:02;;;;;;;;;;;17.80;96.60;;;;;;4346715;33;45839;-75
2022/05/10 04:06:29;;;;;;;;;;;17.80;96.60;;;;;;4359546;33;43074;-75
2022/05/10 04:08:59;;;;;;;;;;;17.80;96.60;;;;;;4358298;33;45734;-76
2022/05/10 04:11:27;;;;;;;;;;;17.70;96.60;;;;;;4359947;33;43756;-76
2022/05/10 04:13:54;;;;;;;;;;;17.80;96.70;;;;;;4346508;33;44409;-75
2022/05/10 04:16:22;;;;;;;;;;;17.70;96.70;;;;;;4346020;33;43902;-76
2022/05/10 04:18:49;;;;;;;;;;;17.70;96.70;;;;;;4346296;33;44084;-76
2022/05/10 04:21:16;;;;;;;;;;;17.70;96.80;;;;;;4359559;33;43066;-76
2022/05/10 04:23:43;;;;;;;;;;;17.70;96.80;;;;;;4359322;33;44995;-75
2022/05/10 04:26:11;;;;;;;;;;;17.70;96.80;;;;;;4360881;32;43259;-76
2022/05/10 04:28:39;;;;;;;;;;;17.70;96.90;;;;;;4362797;32;44740;-76
2022/05/10 04:31:06;;;;;;;;;;;17.60;96.80;;;;;;4361185;32;42741;-76
2022/05/10 04:33:33;;;;;;;;;;;17.60;96.80;;;;;;4362248;32;44191;-76
2022/05/10 04:36:00;;;;;;;;;;;17.60;96.80;;;;;;4362645;32;44222;-75
2022/05/10 04:38:28;;;;;;;;;;;17.60;96.80;;;;;;4361638;32;43263;-76
2022/05/10 04:43:40;;;;;;;;;;;17.60;97.00;;;;;;4362299;32;42465;-76
2022/05/10 04:46:08;;;;;;;;;;;17.60;96.90;;;;;;4362148;32;43525;-76
2022/05/10 04:48:35;;;;;;;;;;;17.60;97.00;;;;;;4350092;32;19997;-76
2022/05/10 04:51:03;;;;;;;;;;;17.60;97.00;;;;;;4348654;32;43858;-76
2022/05/10 04:53:30;;;;;;;;;;;17.60;97.00;;;;;;4349100;32;42755;-76
2022/05/10 04:55:57;;;;;;;;;;;17.60;97.10;;;;;;4362208;32;42504;-76
2022/05/10 04:58:25;;;;;;;;;;;17.60;97.50;;;;;;4360696;32;43477;-76
2022/05/10 05:00:54;;;;;;;;;;;17.50;97.20;;;;;;4362335;32;44964;-76
2022/05/10 05:03:21;;;;;;;;;;;17.60;97.30;;;;;;4361694;32;43237;-76
2022/05/10 05:05:48;;;;;;;;;;;17.60;97.30;;;;;;4362413;32;43223;-76
2022/05/10 05:08:15;;;;;;;;;;;17.60;97.20;;;;;;4348840;32;45801;-77
2022/05/10 05:10:42;;;;;;;;;;;17.50;97.30;;;;;;4348757;32;45405;-76
2022/05/10 05:13:09;;;;;;;;;;;17.50;97.30;;;;;;4360653;32;44215;-76
2022/05/10 05:15:36;;;;;;;;;;;17.60;97.30;;;;;;4348761;32;45546;-76
2022/05/10 05:18:07;;;;;;;;;;;17.60;97.40;;;;;;4348817;32;43928;-76
2022/05/10 05:20:35;;;;;;;;;;;17.50;97.40;;;;;;4348691;32;44881;-76
2022/05/10 05:23:08;;;;;;;;;;;17.50;97.30;;;;;;4348598;32;45002;-76
2022/05/10 05:25:36;;;;;;;;;;;17.50;97.40;;;;;;4361782;32;42458;-76
2022/05/10 05:28:04;;;;;;;;;;;17.50;97.50;;;;;;4361989;32;44816;-76
2022/05/10 05:30:31;;;;;;;;;;;17.50;97.40;;;;;;4361523;32;43589;-77
2022/05/10 05:32:58;;;;;;;;;;;17.60;97.50;;;;;;4361978;32;43787;-76
2022/05/10 05:35:25;;;;;;;;;;;17.60;97.40;;;;;;4347996;32;43478;-76
2022/05/10 05:37:54;;;;;;;;;;;17.60;97.60;;;;;;4358968;32;45821;-76
2022/05/10 05:40:22;;;;;;;;;;;17.60;97.60;;;;;;4361527;32;42269;-76
2022/05/10 05:42:53;;;;;;;;;;;17.60;97.70;;;;;;4347864;32;42068;-76
2022/05/10 05:45:22;;;;;;;;;;;17.60;97.70;;;;;;4360661;32;43629;-76
2022/05/10 05:47:50;;;;;;;;;;;17.60;97.70;;;;;;4348295;32;44293;-76
2022/05/10 05:50:18;;;;;;;;;;;17.60;97.70;;;;;;4362084;32;20005;-76
2022/05/10 05:52:46;;;;;;;;;;;17.60;97.70;;;;;;4361578;32;44047;-76
2022/05/10 05:55:16;;;;;;;;;;;17.60;97.70;;;;;;4360488;32;44100;-76
2022/05/10 05:57:43;;;;;;;;;;;17.60;97.80;;;;;;4360985;32;42998;-76
2022/05/10 06:00:13;;;;;;;;;;;17.60;97.90;;;;;;4360083;32;42891;-78
2022/05/10 06:02:41;;;;;;;;;;;17.60;97.80;;;;;;4347592;32;44007;-76
2022/05/10 06:05:08;;;;;;;;;;;17.70;97.80;;;;;;4361466;32;43086;-76
2022/05/10 06:07:36;;;;;;;;;;;17.70;97.90;;;;;;4359729;32;45153;-76
2022/05/10 06:10:04;;;;;;;;;;;17.70;98.10;;;;;;4359833;32;42495;-76
2022/05/10 06:12:31;;;;;;;;;;;17.70;98.00;;;;;;4359685;32;45783;-76
2022/05/10 06:14:59;;;;;;;;;;;17.80;98.50;;;;;;4361215;32;42959;-76
2022/05/10 06:17:26;;;;;;;;;;;17.80;98.10;;;;;;4360684;32;43609;-76
2022/05/10 06:19:53;;;;;;;;;;;17.80;98.00;;;;;;4360945;32;42812;-76
2022/05/10 06:22:20;;;;;;;;;;;17.80;97.80;;;;;;4347802;32;43107;-76
2022/05/10 06:24:47;;;;;;;;;;;17.80;97.80;;;;;;4347745;32;43454;-77
2022/05/10 06:27:15;;;;;;;;;;;17.80;97.80;;;;;;4360122;32;43952;-76
2022/05/10 06:29:43;;;;;;;;;;;17.80;97.80;;;;;;4359944;32;45667;-78
2022/05/10 06:32:11;;;;;;;;;;;17.80;97.90;;;;;;4360895;32;43174;-78
2022/05/10 06:34:40;;;;;;;;;;;17.90;97.80;;;;;;4360560;32;44175;-78
2022/05/10 06:38:16;;;;;;;;;;;17.90;97.90;;;;;;4359930;32;44352;-78
2022/05/10 06:39:54;;;;;;;;;;;17.90;98.00;;;;;;4360547;32;43817;-77
2022/05/10 06:42:22;;;;;;;;;;;17.90;97.90;;;;;;4347102;32;43171;-76
2022/05/10 06:44:49;;;;;;;;;;;17.90;97.90;;;;;;4347060;32;44312;-77
2022/05/10 06:47:16;;;;;;;;;;;17.90;97.90;;;;;;4359200;32;45396;-78
2022/05/10 06:49:43;;;;;;;;;;;17.90;97.90;;;;;;4359956;32;44084;-79
2022/05/10 06:52:15;;;;;;;;;;;17.90;98.00;;;;;;4347468;32;45144;-76
2022/05/10 06:54:42;;;;;;;;;;;17.90;97.90;;;;;;4359632;32;43031;-77
2022/05/10 06:57:09;;;;;;;;;;;17.90;98.00;;;;;;4360171;32;42528;-77
2022/05/10 06:59:37;;;;;;;;;;;17.90;97.90;;;;;;4359609;32;43474;-77
2022/05/10 07:02:04;;;;;;;;;;;17.90;98.00;;;;;;4347038;32;43835;-77
2022/05/10 07:04:31;;;;;;;;;;;17.90;98.00;;;;;;4346949;32;42518;-77
2022/05/10 07:06:58;;;;;;;;;;;17.90;98.00;;;;;;4360547;32;43092;-77
2022/05/10 07:09:25;;;;;;;;;;;17.90;98.10;;;;;;4346741;32;43213;-77
2022/05/10 07:11:59;;;;;;;;;;;18.00;98.20;;;;;;4360802;32;44227;-78
2022/05/10 07:14:26;;;;;;;;;;;18.00;98.00;;;;;;4347255;32;43376;-78
2022/05/10 07:16:53;;;;;;;;;;;18.00;98.30;;;;;;4346987;32;42443;-78
2022/05/10 07:19:20;;;;;;;;;;;18.00;98.40;;;;;;4358759;32;44451;-77
2022/05/10 07:21:50;;;;;;;;;;;18.10;98.30;;;;;;4359785;32;45259;-78
2022/05/10 07:24:19;;;;;;;;;;;18.10;98.50;;;;;;4360053;32;43172;-78
2022/05/10 07:26:46;;;;;;;;;;;18.10;98.60;;;;;;4346549;32;42866;-77
2022/05/10 07:29:15;;;;;;;;;;;18.10;98.40;;;;;;4359082;32;43017;-78
2022/05/10 07:31:42;;;;;;;;;;;18.10;98.30;;;;;;4360196;32;43955;-76
2022/05/10 07:34:10;;;;;;;;;;;18.10;98.50;;;;;;4346923;32;43111;-78
2022/05/10 07:36:38;;;;;;;;;;;18.20;98.40;;;;;;4360230;32;44266;-81
2022/05/10 07:39:07;;;;;;;;;;;18.20;98.60;;;;;;4346385;32;45030;-77
2022/05/10 07:41:34;;;;;;;;;;;18.20;98.60;;;;;;4358562;32;43767;-77
2022/05/10 07:44:02;;;;;;;;;;;18.20;98.30;;;;;;4360129;32;44076;-77
2022/05/10 07:46:29;;;;;;;;;;;18.30;98.40;;;;;;4359661;32;43014;-78
2022/05/10 07:48:56;;;;;;;;;;;18.20;98.20;;;;;;4360064;32;44355;-79
2022/05/10 07:51:23;;;;;;;;;;;18.30;98.30;;;;;;4346287;32;42830;-77
2022/05/10 07:53:51;;;;;;;;;;;18.30;98.40;;;;;;4360021;32;43599;-76
2022/05/10 07:56:18;;;;;;;;;;;18.30;98.20;;;;;;4360067;33;43409;-77
2022/05/10 07:58:55;;;;;;;;;;;18.30;98.40;;;;;;4360116;33;43924;-78
2022/05/10 08:01:24;;;;;;;;;;;18.30;98.40;;;;;;4362447;32;42481;-77
2022/05/10 08:03:51;;;;;;;;;;;18.30;98.50;;;;;;4361708;32;43533;-76
2022/05/10 08:06:20;;;;;;;;;;;18.30;98.30;;;;;;4361579;32;43523;-77
2022/05/10 08:08:47;;;;;;;;;;;18.40;98.50;;;;;;4361544;32;43695;-77
2022/05/10 08:11:14;;;;;;;;;;;18.40;98.70;;;;;;4361923;32;43671;-78
2022/05/10 08:13:41;;;;;;;;;;;18.40;98.80;;;;;;4361930;32;43685;-76
2022/05/10 08:16:11;;;;;;;;;;;18.40;98.80;;;;;;4361908;32;43474;-79
2022/05/10 08:18:45;;;;;;;;;;;18.40;98.90;;;;;;4362645;32;42096;-78
2022/05/10 08:21:13;;;;;;;;;;;18.40;98.70;;;;;;4362691;32;43731;-76
2022/05/10 08:23:40;;;;;;;;;;;18.40;98.90;;;;;;4362669;32;42151;-78
2022/05/10 08:26:08;;;;;;;;;;;18.40;98.70;;;;;;4362803;32;42993;-78
2022/05/10 08:28:36;;;;;;;;;;;18.40;98.70;;;;;;4349506;32;42449;-77
2022/05/10 08:31:04;;;;;;;;;;;18.40;98.50;;;;;;4362797;32;43478;-77
2022/05/10 08:33:33;;;;;;;;;;;18.50;98.90;;;;;;4361343;32;42685;-77
2022/05/10 08:36:08;;;;;;;;;;;18.50;98.90;;;;;;4362203;32;44148;-76
2022/05/10 08:38:38;;;;;;;;;;;18.50;98.90;;;;;;4361635;32;44152;-78
2022/05/10 08:41:08;;;;;;;;;;;18.50;99.20;;;;;;4349329;32;43700;-77
2022/05/10 08:43:35;;;;;;;;;;;18.50;99.20;;;;;;4362749;32;43006;-76
2022/05/10 08:46:07;;;;;;;;;;;18.60;99.20;;;;;;4362224;32;44154;-78
2022/05/10 08:48:38;;;;;;;;;;;18.60;99.10;;;;;;4361889;32;42661;-76
2022/05/10 08:51:07;;;;;;;;;;;18.60;99.10;;;;;;4361404;32;43205;-77
2022/05/10 08:53:34;;;;;;;;;;;18.60;99.10;;;;;;4363100;32;20134;-78
2022/05/10 08:56:05;;;;;;;;;;;18.60;98.80;;;;;;4349118;32;42891;-77
2022/05/10 08:58:43;;;;;;;;;;;18.70;98.60;;;;;;4349116;32;43936;-78
2022/05/10 09:01:36;;;;;;;;;;;18.70;98.80;;;;;;4360613;32;44141;-79
2022/05/10 09:04:33;;;;;;;;;;;18.70;98.70;;;;;;4362346;32;43756;-77
2022/05/10 09:07:07;;;;;;;;;;;18.70;98.60;;;;;;4349277;32;43849;-78
2022/05/10 09:09:43;;;;;;;;;;;18.70;98.70;;;;;;4349344;32;44254;-79
2022/05/10 09:12:21;;;;;;;;;;;18.80;98.50;;;;;;4361317;32;42869;-79
2022/05/10 09:14:50;;;;;;;;;;;18.80;99.30;;;;;;4362183;32;43379;-78
2022/05/10 09:17:19;;;;;;;;;;;18.80;99.10;;;;;;4361756;32;43498;-77
2022/05/10 09:19:49;;;;;;;;;;;18.80;98.50;;;;;;4349248;32;45746;-78
2022/05/10 09:22:43;;;;;;;;;;;18.80;98.50;;;;;;4361528;32;44239;-79
2022/05/10 09:25:19;;;;;;;;;;;18.90;98.50;;;;;;4348187;32;44226;-77
2022/05/10 09:27:50;;;;;;;;;;;18.90;98.40;;;;;;4360999;32;43494;-78
2022/05/10 09:30:30;;;;;;;;;;;18.90;98.30;;;;;;4348330;32;42662;-79
2022/05/10 09:36:23;;;;;;;;;;;18.90;98.20;;;;;;4336207;32;45763;-78
2022/05/10 09:38:52;;;;;;;;;;;19.00;98.20;;;;;;4360942;32;43461;-79
2022/05/10 09:41:32;;;;;;;;;;;19.00;98.60;;;;;;4348480;32;43858;-77
2022/05/10 09:44:15;;;;;;;;;;;19.00;98.40;;;;;;4360232;32;42727;-78
2022/05/10 09:46:42;;;;;;;;;;;19.00;98.10;;;;;;4361788;32;43272;-79
2022/05/10 09:49:28;;;;;;;;;;;19.00;97.60;;;;;;4361548;32;43839;-77
2022/05/10 09:51:58;;;;;;;;;;;19.10;97.40;;;;;;4347870;32;42549;-76
2022/05/10 09:54:40;;;;;;;;;;;19.10;97.70;;;;;;4361659;32;43270;-76
2022/05/10 09:57:10;;;;;;;;;;;19.10;97.70;;;;;;4360016;32;44205;-77
2022/05/10 09:59:39;;;;;;;;;;;19.20;97.60;;;;;;4361625;32;43950;-77
2022/05/10 10:02:09;;;;;;;;;;;19.20;97.20;;;;;;4347906;32;42574;-76
2022/05/10 10:04:41;;;;;;;;;;;19.20;97.30;;;;;;4360971;32;43264;-78
2022/05/10 10:07:16;;;;;;;;;;;19.20;97.20;;;;;;4348150;32;43392;-77
2022/05/10 10:09:47;;;;;;;;;;;19.20;97.20;;;;;;4361203;32;42917;-78
2022/05/10 10:12:35;;;;;;;;;;;19.30;97.10;;;;;;4347883;32;44183;-76
2022/05/10 10:15:23;;;;;;;;;;;19.30;96.80;;;;;;4360351;32;42782;-77
2022/05/10 10:18:06;;;;;;;;;;;19.30;96.90;;;;;;4360194;32;43058;-77
2022/05/10 10:20:43;;;;;;;;;;;19.30;96.70;;;;;;4360074;32;43934;-76
2022/05/10 10:23:30;;;;;;;;;;;19.30;96.60;;;;;;4347787;32;44336;-76
2022/05/10 10:26:03;;;;;;;;;;;19.30;96.70;;;;;;4360754;32;20029;-77
2022/05/10 10:28:34;;;;;;;;;;;19.40;96.80;;;;;;4361323;32;43474;-77
2022/05/10 10:31:06;;;;;;;;;;;19.40;96.70;;;;;;4360765;32;43639;-77
2022/05/10 10:33:39;;;;;;;;;;;19.40;96.50;;;;;;4360921;32;43658;-77
2022/05/10 10:36:11;;;;;;;;;;;19.40;96.40;;;;;;4361087;32;42034;-77
2022/05/10 10:39:02;;;;;;;;;;;19.50;96.50;;;;;;4347974;32;43490;-76
2022/05/10 10:41:35;;;;;;;;;;;19.50;96.00;;;;;;4360767;32;43545;-76
2022/05/10 10:44:09;;;;;;;;;;;19.50;96.20;;;;;;4360821;32;43970;-77
2022/05/10 10:46:43;;;;;;;;;;;19.50;96.10;;;;;;4347096;32;42844;-78
2022/05/10 10:49:17;;;;;;;;;;;19.50;96.40;;;;;;4360892;32;42969;-76
2022/05/10 10:51:47;;;;;;;;;;;19.60;95.90;;;;;;4360580;32;42492;-78
2022/05/10 10:54:16;;;;;;;;;;;19.60;96.20;;;;;;4360461;32;44146;-77
2022/05/10 10:56:46;;;;;;;;;;;19.60;96.10;;;;;;4361728;32;20015;-78
2022/05/10 10:59:27;;;;;;;;;;;19.60;96.00;;;;;;4360144;32;43692;-77
2022/05/10 11:01:56;;;;;;;;;;;19.70;96.10;;;;;;4347105;32;44894;-76
2022/05/10 11:04:29;;;;;;;;;;;19.70;95.90;;;;;;4360487;32;42454;-76
2022/05/10 11:06:57;;;;;;;;;;;19.70;95.80;;;;;;4347259;32;42914;-78
2022/05/10 11:09:37;;;;;;;;;;;19.70;95.60;;;;;;4360090;32;43482;-78
2022/05/10 11:12:10;;;;;;;;;;;19.80;95.60;;;;;;4360412;32;43423;-77
2022/05/10 11:15:01;;;;;;;;;;;19.80;95.40;;;;;;4360132;32;42085;-78
2022/05/10 11:17:37;;;;;;;;;;;19.80;95.10;;;;;;4351851;32;43660;-76
2022/05/10 11:20:29;;;;;;;;;;;19.80;94.90;;;;;;4360332;32;44288;-78
2022/05/10 11:23:00;;;;;;;;;;;19.80;94.80;;;;;;4359322;32;43066;-77
2022/05/10 11:25:39;;;;;;;;;;;19.90;94.60;;;;;;4347399;32;44396;-79
2022/05/10 11:28:16;;;;;;;;;;;19.90;94.80;;;;;;4360746;32;19997;-76
2022/05/10 11:30:56;;;;;;;;;;;19.90;94.60;;;;;;4360257;32;44840;-79
2022/05/10 11:33:23;;;;;;;;;;;19.90;94.40;;;;;;4359487;32;43063;-80
2022/05/10 11:35:58;;;;;;;;;;;20.00;94.20;;;;;;4360185;32;42839;-78
2022/05/10 11:38:28;;;;;;;;;;;20.00;94.30;;;;;;4360126;32;44112;-77
2022/05/10 11:41:18;;;;;;;;;;;20.10;94.30;;;;;;4346290;32;43176;-79
2022/05/10 11:44:03;;;;;;;;;;;20.10;94.30;;;;;;4330076;32;43032;-78
2022/05/10 11:46:43;;;;;;;;;;;20.10;94.50;;;;;;4346839;32;44136;-78
2022/05/10 11:49:11;;;;;;;;;;;20.20;94.20;;;;;;4358592;32;42958;-78
2022/05/10 11:51:47;;;;;;;;;;;20.20;94.20;;;;;;4359932;32;45294;-78
2022/05/10 11:54:16;;;;;;;;;;;20.20;94.20;;;;;;4360158;32;44315;-78
2022/05/10 11:56:44;;;;;;;;;;;20.20;94.20;;;;;;4359846;32;42178;-78
2022/05/10 11:59:13;;;;;;;;;;;20.20;94.30;;;;;;4360301;33;20444;-77
2022/05/10 12:01:40;;;;;;;;;;;20.30;94.40;;;;;;4359416;33;43697;-77
2022/05/10 12:04:27;;;;;;;;;;;20.30;94.20;;;;;;4346778;33;43258;-77
2022/05/10 12:06:54;;;;;;;;;;;20.30;94.30;;;;;;4358996;33;43482;-77
2022/05/10 12:09:42;;;;;;;;;;;20.30;94.60;;;;;;4346641;33;43528;-79
2022/05/10 12:12:32;;;;;;;;;;;20.40;94.60;;;;;;4346716;33;42629;-77
2022/05/10 12:21:21;;;;;;;;;;;20.50;94.00;;;;;;4359936;33;43053;-79
2022/05/10 12:24:01;;;;;;;;;;;20.50;93.70;;;;;;4359973;33;43253;-79
2022/05/10 12:26:43;;;;;;;;;;;20.60;94.00;;;;;;4359874;33;44347;-80
2022/05/10 12:29:31;;;;;;;;;;;20.50;93.30;;;;;;4359876;33;43727;-79
2022/05/10 12:31:58;;;;;;;;;;;20.50;93.30;;;;;;4345907;33;45264;-79
2022/05/10 12:34:43;;;;;;;;;;;20.60;93.50;;;;;;4358774;33;43183;-79
2022/05/10 12:37:24;;;;;;;;;;;20.60;94.10;;;;;;4358527;33;43487;-77
2022/05/10 12:39:56;;;;;;;;;;;20.60;94.00;;;;;;4346556;33;44252;-78
2022/05/10 12:42:27;;;;;;;;;;;20.60;94.00;;;;;;4359292;33;42177;-77
2022/05/10 12:45:18;;;;;;;;;;;20.70;93.70;;;;;;4346831;33;46124;-77
2022/05/10 12:48:12;;;;;;;;;;;20.70;93.60;;;;;;4332095;32;43746;-76
2022/05/10 12:50:58;;;;;;;;;;;20.70;93.40;;;;;;4362458;32;43927;-80
2022/05/10 12:53:30;;;;;;;;;;;20.70;93.40;;;;;;4362357;32;44104;-79
2022/05/10 12:56:26;;;;;;;;;;;20.70;93.20;;;;;;4362067;32;43467;-80
2022/05/10 12:59:06;;;;;;;;;;;20.70;93.40;;;;;;4349656;32;43317;-78
2022/05/10 13:01:35;;;;;;;;;;;20.70;93.20;;;;;;4362754;32;19993;-78
2022/05/10 13:04:06;;;;;;;;;;;20.70;93.10;;;;;;4361911;32;42747;-79
2022/05/10 13:06:41;;;;;;;;;;;20.70;92.90;;;;;;4362511;32;43158;-79
2022/05/10 13:09:29;;;;;;;;;;;20.70;93.00;;;;;;4362295;32;45786;-79
2022/05/10 13:12:01;;;;;;;;;;;20.70;92.90;;;;;;4360103;32;44117;-78
2022/05/10 13:14:33;;;;;;;;;;;20.80;93.00;;;;;;4362161;32;45664;-78
2022/05/10 13:17:01;;;;;;;;;;;20.70;92.70;;;;;;4348878;32;43528;-79
2022/05/10 13:19:29;;;;;;;;;;;20.70;92.50;;;;;;4361847;32;44686;-78
2022/05/10 13:22:05;;;;;;;;;;;20.70;92.70;;;;;;4361959;32;43613;-78
2022/05/10 13:24:36;;;;;;;;;;;20.80;92.50;;;;;;4363233;32;20390;-77
2022/05/10 13:27:07;;;;;;;;;;;20.80;92.60;;;;;;4348646;32;44091;-78
2022/05/10 13:29:40;;;;;;;;;;;20.80;93.30;;;;;;4360621;32;43466;-80
2022/05/10 13:32:27;;;;;;;;;;;20.80;92.80;;;;;;4362506;32;43506;-78
2022/05/10 13:34:54;;;;;;;;;;;20.80;93.20;;;;;;4360543;32;43139;-77
2022/05/10 13:37:25;;;;;;;;;;;20.80;93.00;;;;;;4361785;32;43692;-79
2022/05/10 13:39:54;;;;;;;;;;;20.80;93.10;;;;;;4360816;32;43486;-79
2022/05/10 13:42:23;;;;;;;;;;;20.80;93.10;;;;;;4360351;32;42897;-78
2022/05/10 13:44:51;;;;;;;;;;;20.80;93.30;;;;;;4347948;32;45047;-78
2022/05/10 13:47:37;;;;;;;;;;;20.90;92.90;;;;;;4360859;32;42981;-76
2022/05/10 13:50:07;;;;;;;;;;;20.90;93.10;;;;;;4347993;32;42935;-77
2022/05/10 13:52:47;;;;;;;;;;;20.90;92.80;;;;;;4361701;32;42862;-77
2022/05/10 13:55:24;;;;;;;;;;;20.90;92.70;;;;;;4349214;32;43089;-76
2022/05/10 13:58:09;;;;;;;;;;;20.90;92.90;;;;;;4361440;32;43261;-76
2022/05/10 14:00:44;;;;;;;;;;;20.90;93.00;;;;;;4361585;32;44831;-77
2022/05/10 14:03:18;;;;;;;;;;;21.00;92.60;;;;;;4360971;32;44631;-78
2022/05/10 14:05:46;;;;;;;;;;;21.00;92.30;;;;;;4361199;32;42234;-77
2022/05/10 14:08:18;;;;;;;;;;;21.00;92.40;;;;;;4347860;32;44187;-78
2022/05/10 14:10:57;;;;;;;;;;;21.00;92.00;;;;;;4347603;32;42982;-77
2022/05/10 14:13:24;;;;;;;;;;;21.00;92.50;;;;;;4361247;32;43040;-78
2022/05/10 14:15:57;;;;;;;;;;;21.00;92.10;;;;;;4348236;32;43305;-76
2022/05/10 14:18:29;;;;;;;;;;;21.00;91.90;;;;;;4361213;32;44219;-78
2022/05/10 14:21:02;;;;;;;;;;;21.10;92.20;;;;;;4361010;32;43596;-77
2022/05/10 14:23:30;;;;;;;;;;;21.00;91.70;;;;;;4348054;32;44220;-76
2022/05/10 14:26:00;;;;;;;;;;;21.10;92.00;;;;;;4359937;32;44113;-77
2022/05/10 14:28:37;;;;;;;;;;;21.10;92.90;;;;;;4359960;32;44274;-78
2022/05/10 14:31:12;;;;;;;;;;;21.10;92.50;;;;;;4360298;32;44201;-76
2022/05/10 14:33:41;;;;;;;;;;;21.10;91.80;;;;;;4361759;32;20001;-79
2022/05/10 14:36:09;;;;;;;;;;;21.20;91.60;;;;;;4361156;32;42620;-77
2022/05/10 14:38:40;;;;;;;;;;;21.20;91.60;;;;;;4359435;32;42589;-76
2022/05/10 14:41:11;;;;;;;;;;;21.20;91.80;;;;;;4360804;32;45342;-76
2022/05/10 14:43:42;;;;;;;;;;;21.20;92.40;;;;;;4361063;32;43857;-78
2022/05/10 14:46:31;;;;;;;;;;;21.20;92.20;;;;;;4347784;32;43871;-77
2022/05/10 14:49:07;;;;;;;;;;;21.30;92.40;;;;;;4359763;32;42861;-79
2022/05/10 14:51:39;;;;;;;;;;;21.30;92.50;;;;;;4347809;32;42853;-77
2022/05/10 14:54:07;;;;;;;;;;;21.40;92.40;;;;;;4347404;32;46210;-78
2022/05/10 14:56:47;;;;;;;;;;;21.40;92.20;;;;;;4360775;32;42882;-79
2022/05/10 14:59:20;;;;;;;;;;;21.40;92.50;;;;;;4359889;32;43850;-78
2022/05/10 15:01:47;;;;;;;;;;;21.40;92.30;;;;;;4347002;32;45800;-78